01:39 MTB Moetz - Alte Bdstr - Fiecht - Telfs - Moetz
Ort Moetz Datum 19.04.2015 11:08:09
Kategorie MTB
Distanz 24,33 Kilometer Steigung 349,0 Meter Gefälle -337,0 Meter
Gesamt Zeit 02:13:52 Aktiv 01:39:26 Pause 00:34:26
Durchs. Tempo 14,7 km/h Tempo max. 32,0 km/h Tempo min. 5,0 km/h
Kalorien 0 Durchs. HF 91 BPM HF max. 139 BPM
Wetter 11 °C Clear Min/Max: 8,1 °C/13,1 °C; Druck: 1019,5 mbar; Rel. Feuchte: 43,0%; Taupunkt: -1,9 °C; Windgeschwindigkeit: 4,0 km/h; Niederschlag: 0,0mm
Ausrüstung Bontrager - Race X Lite MTB
Schwalbe - Nobby Nic vorne
Schwalbe - Racing Ralph hinten
Shimano - HG-XTR 7701
Specialized - Stumpjumper Comp
Notiz Moetz - Alte Bdstr - Fiecht - Telfs - Moetz ... super Wetter, recht frisch, lockere Fahrt mit Diana, Pause bei der Eisdiele ... garmin connect
Splits
Distanz (km) Gesamt Zeit Split Zeit Split Tempo Split Tempo Höhenprofil (m)
1,00 00:07:49 00:07:49 00:07:49 7,7 43,59
2,00 00:16:49 00:08:59 00:09:00 6,7 103,68
3,00 00:21:14 00:04:25 00:04:25 13,6 15,97
4,00 00:23:55 00:02:40 00:02:41 22,4 -7,57
5,00 00:28:23 00:04:28 00:04:28 13,4 -3,50
6,00 00:33:22 00:04:58 00:04:59 12,0 15,34
7,00 00:38:38 00:05:16 00:05:17 11,4 9,78
8,00 00:42:29 00:03:51 00:03:51 15,6 -23,36
9,00 00:48:37 00:06:07 00:06:08 9,8 6,88
10,00 00:52:16 00:03:38 00:03:39 16,5 -48,29
11,00 00:57:06 00:04:50 00:04:50 12,4 -30,67
12,00 01:00:09 00:03:02 00:03:03 19,7 -75,13
13,00 01:03:04 00:02:54 00:02:55 20,6 -36,75
14,00 01:06:24 00:03:19 00:03:20 18,0 -5,65
15,00 01:09:18 00:02:54 00:02:54 20,6 1,92
16,00 01:12:23 00:03:05 00:03:05 19,4 2,88
17,00 01:15:42 00:03:18 00:03:18 18,2 4,68
18,00 01:19:33 00:03:51 00:03:52 15,5 5,13
19,00 01:22:58 00:03:24 00:03:25 17,6 2,82
20,00 01:25:56 00:02:57 00:02:57 20,3 -3,49
21,00 01:28:55 00:02:59 00:02:59 20,1 1,90
22,00 01:31:57 00:03:02 00:03:03 19,7 0,23
23,00 01:34:56 00:02:58 00:02:58 20,2 2,91
24,00 01:37:56 00:03:00 00:03:01 19,9 4,50
24,42 01:39:26 00:01:29 00:03:34 16,8 5,36